Time;durP1;ratioP1;P1;durP2;ratioP2;P2;SDS_P1;SDS_P2;PMS_P1;PMS_P2;Temp;Humidity;BMP_temperature;BMP_pressure;BME280_temperature;BME280_humidity;BME280_pressure;Samples;Min_cycle;Max_cycle;Signal;HPM_P1;HPM_P2
2023/09/03 00:01:09;;;;;;;13.90;7.05;;;;;;;;;;4976239;28;20027;-65
2023/09/03 00:03:34;;;;;;;13.07;6.47;;;;;;;;;;4975969;28;20037;-65
2023/09/03 00:06:00;;;;;;;13.07;6.90;;;;;;;;;;4976032;28;20073;-66
2023/09/03 00:08:26;;;;;;;12.43;6.80;;;;;;;;;;4976018;28;20045;-66
2023/09/03 00:10:52;;;;;;;15.85;6.88;;;;;;;;;;4975823;28;20453;-66
2023/09/03 00:13:18;;;;;;;11.73;6.22;;;;;;;;;;4975677;28;20481;-66
2023/09/03 00:15:43;;;;;;;13.30;7.45;;;;;;;;;;4975608;28;20043;-66
2023/09/03 00:18:12;;;;;;;11.27;6.50;;;;;;;;;;4975840;28;20531;-66
2023/09/03 00:20:38;;;;;;;12.82;7.30;;;;;;;;;;4975706;28;20019;-66
2023/09/03 00:23:04;;;;;;;12.10;6.93;;;;;;;;;;4974322;28;20436;-66
2023/09/03 00:25:36;;;;;;;13.55;6.82;;;;;;;;;;4975844;28;20046;-66
2023/09/03 00:28:03;;;;;;;15.68;7.75;;;;;;;;;;4975542;28;20038;-66
2023/09/03 00:30:28;;;;;;;14.52;7.38;;;;;;;;;;4975617;28;20061;-66
2023/09/03 00:32:54;;;;;;;13.10;7.85;;;;;;;;;;4975569;28;20026;-66
2023/09/03 00:35:20;;;;;;;14.93;7.55;;;;;;;;;;4975469;28;20037;-66
2023/09/03 00:37:46;;;;;;;16.10;7.97;;;;;;;;;;4987289;28;20042;-66
2023/09/03 00:40:11;;;;;;;12.50;7.00;;;;;;;;;;4974183;28;20087;-66
2023/09/03 00:42:37;;;;;;;13.85;7.82;;;;;;;;;;4975347;28;20062;-66
2023/09/03 00:45:02;;;;;;;12.80;8.10;;;;;;;;;;4975439;28;20022;-66
2023/09/03 00:47:28;;;;;;;12.25;8.02;;;;;;;;;;4975218;28;20034;-65
2023/09/03 00:49:54;;;;;;;12.82;7.43;;;;;;;;;;4967541;28;20492;-66
2023/09/03 00:52:21;;;;;;;12.65;7.63;;;;;;;;;;4973668;28;20031;-65
2023/09/03 00:54:47;;;;;;;14.68;8.38;;;;;;;;;;4975475;28;20507;-65
2023/09/03 00:57:12;;;;;;;15.90;7.07;;;;;;;;;;4975171;28;20038;-66
2023/09/03 00:59:40;;;;;;;12.55;7.30;;;;;;;;;;4974945;28;20404;-66
2023/09/03 01:02:05;;;;;;;14.45;7.47;;;;;;;;;;4975105;28;20480;-66
2023/09/03 01:04:31;;;;;;;14.70;7.95;;;;;;;;;;4975016;28;20038;-66
2023/09/03 01:06:57;;;;;;;14.75;8.02;;;;;;;;;;4974891;28;20468;-66
2023/09/03 01:09:22;;;;;;;14.65;7.70;;;;;;;;;;4974659;28;20084;-65
2023/09/03 01:12:03;;;;;;;17.02;8.05;;;;;;;;;;4974898;28;20038;-66
2023/09/03 01:14:31;;;;;;;17.52;8.10;;;;;;;;;;4974187;28;20092;-66
2023/09/03 01:17:02;;;;;;;11.60;6.75;;;;;;;;;;4974022;28;20113;-66
2023/09/03 01:19:30;;;;;;;12.70;6.95;;;;;;;;;;4973882;28;20078;-65
2023/09/03 01:22:09;;;;;;;13.60;7.95;;;;;;;;;;4973622;28;20480;-65
2023/09/03 01:24:49;;;;;;;14.15;8.00;;;;;;;;;;4973980;28;20396;-65
2023/09/03 01:27:22;;;;;;;13.40;7.30;;;;;;;;;;4966895;28;20100;-66
2023/09/03 01:29:48;;;;;;;12.00;6.63;;;;;;;;;;4973553;28;20443;-66
2023/09/03 01:32:16;;;;;;;13.40;7.35;;;;;;;;;;4984586;28;20022;-66
2023/09/03 01:34:44;;;;;;;13.65;7.65;;;;;;;;;;4979949;28;20030;-66
2023/09/03 01:37:11;;;;;;;14.52;7.82;;;;;;;;;;4962149;28;20481;-66
2023/09/03 01:39:37;;;;;;;12.30;7.38;;;;;;;;;;4965815;28;20540;-66
2023/09/03 01:42:02;;;;;;;13.85;7.57;;;;;;;;;;4963257;28;20074;-66
2023/09/03 01:44:28;;;;;;;14.45;6.35;;;;;;;;;;4964364;28;20031;-66
2023/09/03 01:47:11;;;;;;;14.05;7.05;;;;;;;;;;4964404;28;20035;-65
2023/09/03 01:50:15;;;;;;;16.10;7.43;;;;;;;;;;4965293;28;20042;-66
2023/09/03 01:52:49;;;;;;;12.80;7.32;;;;;;;;;;4895075;29;20052;-66
2023/09/03 01:55:16;;;;;;;15.10;7.05;;;;;;;;;;4895236;29;20518;-66
2023/09/03 01:57:47;;;;;;;18.60;7.38;;;;;;;;;;4894955;29;20407;-66
2023/09/03 02:00:17;;;;;;;11.90;6.80;;;;;;;;;;4895180;29;20701;-65
2023/09/03 02:02:45;;;;;;;11.50;6.60;;;;;;;;;;4895022;29;20048;-66
2023/09/03 02:05:12;;;;;;;14.63;6.88;;;;;;;;;;4894870;29;20033;-65
2023/09/03 02:07:37;;;;;;;11.90;6.82;;;;;;;;;;4894940;29;20478;-65
2023/09/03 02:10:03;;;;;;;14.38;7.22;;;;;;;;;;4894841;29;20136;-66
2023/09/03 02:12:29;;;;;;;12.43;7.53;;;;;;;;;;4894863;29;20028;-66
2023/09/03 02:14:54;;;;;;;12.18;7.03;;;;;;;;;;4840271;29;1631281;-66
2023/09/03 02:17:20;;;;;;;14.63;6.90;;;;;;;;;;4895641;29;20073;-66
2023/09/03 02:19:49;;;;;;;11.90;6.63;;;;;;;;;;4895435;29;20025;-66
2023/09/03 02:22:15;;;;;;;11.32;6.68;;;;;;;;;;4895580;29;20040;-65
2023/09/03 02:24:41;;;;;;;11.13;6.50;;;;;;;;;;4895560;29;20040;-66
2023/09/03 02:27:06;;;;;;;12.50;6.95;;;;;;;;;;4895794;29;20065;-66
2023/09/03 02:29:32;;;;;;;13.15;7.10;;;;;;;;;;4927446;28;20051;-66
2023/09/03 02:31:57;;;;;;;12.27;7.68;;;;;;;;;;4963777;28;20052;-66
2023/09/03 02:34:23;;;;;;;13.32;7.57;;;;;;;;;;4965018;28;20114;-66
2023/09/03 02:36:48;;;;;;;11.75;6.97;;;;;;;;;;4962349;28;20027;-66
2023/09/03 02:39:14;;;;;;;13.85;7.57;;;;;;;;;;4966215;28;20428;-66
2023/09/03 02:41:40;;;;;;;12.85;7.63;;;;;;;;;;4961201;28;20058;-66
2023/09/03 02:44:07;;;;;;;15.75;7.93;;;;;;;;;;4963700;28;20038;-66
2023/09/03 02:46:32;;;;;;;13.43;7.43;;;;;;;;;;4964105;28;20113;-65
2023/09/03 02:48:58;;;;;;;11.80;7.63;;;;;;;;;;4982399;28;20527;-66
2023/09/03 02:51:23;;;;;;;12.90;6.50;;;;;;;;;;4984452;28;20455;-65
2023/09/03 02:53:51;;;;;;;13.63;6.95;;;;;;;;;;4965691;28;20035;-66
2023/09/03 02:56:17;;;;;;;10.60;6.70;;;;;;;;;;4961660;28;20027;-65
2023/09/03 02:58:45;;;;;;;13.00;7.15;;;;;;;;;;4966731;28;20045;-66
2023/09/03 03:01:12;;;;;;;14.82;6.72;;;;;;;;;;4961060;28;20027;-65
2023/09/03 03:03:38;;;;;;;9.80;7.15;;;;;;;;;;4969314;28;20038;-66
2023/09/03 03:06:03;;;;;;;11.35;6.55;;;;;;;;;;4967646;28;20034;-65
2023/09/03 03:08:29;;;;;;;9.77;6.18;;;;;;;;;;4968325;28;20031;-66
2023/09/03 03:11:11;;;;;;;13.15;6.50;;;;;;;;;;4966245;28;20074;-66
2023/09/03 03:13:44;;;;;;;11.73;6.32;;;;;;;;;;4967261;28;20039;-66
2023/09/03 03:16:11;;;;;;;10.95;5.80;;;;;;;;;;4968270;28;20046;-65
2023/09/03 03:18:39;;;;;;;12.77;6.43;;;;;;;;;;4967001;28;20027;-65
2023/09/03 03:21:06;;;;;;;10.70;6.32;;;;;;;;;;4967389;28;20392;-66
2023/09/03 03:23:32;;;;;;;13.23;6.28;;;;;;;;;;4967739;28;20027;-66
2023/09/03 03:25:58;;;;;;;12.38;7.25;;;;;;;;;;4970200;28;20459;-65
2023/09/03 03:28:23;;;;;;;11.90;6.45;;;;;;;;;;4988775;28;20053;-65
2023/09/03 03:30:48;;;;;;;13.10;6.22;;;;;;;;;;4985132;28;20484;-66
2023/09/03 03:33:14;;;;;;;13.68;6.65;;;;;;;;;;4966107;28;20030;-66
2023/09/03 03:35:39;;;;;;;11.50;5.80;;;;;;;;;;4967414;28;20031;-65
2023/09/03 03:38:05;;;;;;;10.75;6.28;;;;;;;;;;4967356;28;20041;-65
2023/09/03 03:40:30;;;;;;;11.50;6.43;;;;;;;;;;4966218;28;20031;-66
2023/09/03 03:42:55;;;;;;;11.98;6.63;;;;;;;;;;4968680;28;20050;-66
2023/09/03 03:45:21;;;;;;;11.55;6.60;;;;;;;;;;4964711;28;20477;-66
2023/09/03 03:47:48;;;;;;;13.75;6.30;;;;;;;;;;4969430;28;20082;-65
2023/09/03 03:50:13;;;;;;;10.43;6.07;;;;;;;;;;4963545;28;20377;-66
2023/09/03 03:52:40;;;;;;;12.90;6.53;;;;;;;;;;4970903;28;20126;-66
2023/09/03 03:55:06;;;;;;;12.75;6.40;;;;;;;;;;4962516;28;20046;-66
2023/09/03 03:57:31;;;;;;;12.00;6.47;;;;;;;;;;4971881;28;20031;-65
2023/09/03 03:59:57;;;;;;;12.25;7.13;;;;;;;;;;4971947;28;20070;-65
2023/09/03 04:02:22;;;;;;;11.93;7.40;;;;;;;;;;4960246;28;20034;-66
2023/09/03 04:04:52;;;;;;;13.10;7.20;;;;;;;;;;4977739;28;20053;-66
2023/09/03 04:07:17;;;;;;;12.02;7.32;;;;;;;;;;4993161;28;20018;-65
2023/09/03 04:09:43;;;;;;;10.95;6.53;;;;;;;;;;4973987;28;20062;-66
2023/09/03 04:12:08;;;;;;;9.90;5.47;;;;;;;;;;4958258;28;20035;-66
2023/09/03 04:14:33;;;;;;;6.03;4.57;;;;;;;;;;4975225;28;20039;-66
2023/09/03 04:16:59;;;;;;;11.32;4.43;;;;;;;;;;4956669;29;20027;-66
2023/09/03 04:19:24;;;;;;;6.60;4.22;;;;;;;;;;4975771;28;20031;-66
2023/09/03 04:21:50;;;;;;;8.80;4.50;;;;;;;;;;4957055;28;20039;-66
2023/09/03 04:24:15;;;;;;;6.93;4.15;;;;;;;;;;4974736;28;20030;-65
2023/09/03 04:26:42;;;;;;;7.57;4.00;;;;;;;;;;4958407;28;20042;-66
2023/09/03 04:29:07;;;;;;;8.38;4.53;;;;;;;;;;4973366;28;20404;-66
2023/09/03 04:31:35;;;;;;;7.63;4.18;;;;;;;;;;4959423;28;20031;-66
2023/09/03 04:34:01;;;;;;;8.00;4.55;;;;;;;;;;4972412;28;20030;-66
2023/09/03 04:36:27;;;;;;;6.68;3.83;;;;;;;;;;4960485;28;20038;-65
2023/09/03 04:38:52;;;;;;;6.63;4.75;;;;;;;;;;4971080;28;20027;-66
2023/09/03 04:41:17;;;;;;;9.90;4.60;;;;;;;;;;4961650;28;20023;-66
2023/09/03 04:43:46;;;;;;;6.88;4.55;;;;;;;;;;4973886;28;20053;-66
2023/09/03 04:46:12;;;;;;;7.53;4.47;;;;;;;;;;4992634;28;20060;-66
2023/09/03 04:48:37;;;;;;;9.75;4.90;;;;;;;;;;4978176;28;20444;-66
2023/09/03 04:51:04;;;;;;;7.50;4.50;;;;;;;;;;4959460;28;20031;-66
2023/09/03 04:53:33;;;;;;;9.35;4.35;;;;;;;;;;4971550;28;20070;-66
2023/09/03 04:56:00;;;;;;;7.57;4.30;;;;;;;;;;4960003;28;20560;-65
2023/09/03 04:58:25;;;;;;;7.68;4.47;;;;;;;;;;4970803;28;20055;-66
2023/09/03 05:00:51;;;;;;;5.75;3.65;;;;;;;;;;4960672;28;20516;-66
2023/09/03 05:03:16;;;;;;;11.93;5.35;;;;;;;;;;4969603;28;20023;-66
2023/09/03 05:05:43;;;;;;;9.85;4.50;;;;;;;;;;4962624;28;20376;-66
2023/09/03 05:08:08;;;;;;;7.00;4.40;;;;;;;;;;4967809;28;20492;-65
2023/09/03 05:10:34;;;;;;;6.15;4.32;;;;;;;;;;4963125;28;20062;-65
2023/09/03 05:13:03;;;;;;;6.80;4.50;;;;;;;;;;4966751;28;20062;-66
2023/09/03 05:15:28;;;;;;;7.93;4.72;;;;;;;;;;4963937;28;20063;-66
2023/09/03 05:17:53;;;;;;;7.85;4.60;;;;;;;;;;4965926;28;20069;-66
2023/09/03 05:20:19;;;;;;;6.22;4.28;;;;;;;;;;4965211;28;20049;-66
2023/09/03 05:22:44;;;;;;;6.03;3.92;;;;;;;;;;4973785;28;20490;-66
2023/09/03 05:25:10;;;;;;;5.82;3.85;;;;;;;;;;4985455;28;20038;-66
2023/09/03 05:27:35;;;;;;;8.40;3.90;;;;;;;;;;4966653;28;20110;-65
2023/09/03 05:30:00;;;;;;;10.57;3.42;;;;;;;;;;4962621;28;20492;-66
2023/09/03 05:32:26;;;;;;;6.20;3.40;;;;;;;;;;4968312;28;20027;-66
2023/09/03 05:34:51;;;;;;;5.43;3.15;;;;;;;;;;4961152;28;20027;-66
2023/09/03 05:37:17;;;;;;;6.47;3.47;;;;;;;;;;4969567;28;20535;-66
2023/09/03 05:39:42;;;;;;;5.93;3.00;;;;;;;;;;4959727;28;20042;-66
2023/09/03 05:42:08;;;;;;;5.45;3.10;;;;;;;;;;4970433;28;20031;-66
2023/09/03 05:44:33;;;;;;;5.80;2.58;;;;;;;;;;4958442;28;20054;-66
2023/09/03 05:46:58;;;;;;;6.57;3.00;;;;;;;;;;4971721;28;20070;-66
2023/09/03 05:49:25;;;;;;;4.13;2.40;;;;;;;;;;4956318;28;20041;-65
2023/09/03 05:51:50;;;;;;;9.45;2.60;;;;;;;;;;4972915;28;20073;-66
2023/09/03 05:54:15;;;;;;;6.30;2.70;;;;;;;;;;4955758;28;20026;-66
2023/09/03 05:56:41;;;;;;;7.65;2.75;;;;;;;;;;4970019;28;20432;-66
2023/09/03 05:59:08;;;;;;;7.28;2.83;;;;;;;;;;4962458;28;20026;-66
2023/09/03 06:01:34;;;;;;;5.78;2.50;;;;;;;;;;4981317;28;20464;-66
2023/09/03 06:04:04;;;;;;;4.70;2.65;;;;;;;;;;4986829;28;20026;-66
2023/09/03 06:06:36;;;;;;;5.07;2.40;;;;;;;;;;4967729;28;20046;-66
2023/09/03 06:09:02;;;;;;;3.80;2.30;;;;;;;;;;4961473;28;20061;-66
2023/09/03 06:11:28;;;;;;;5.30;2.58;;;;;;;;;;4967729;28;20118;-66
2023/09/03 06:13:53;;;;;;;6.03;2.60;;;;;;;;;;4960142;28;20043;-66
2023/09/03 06:16:19;;;;;;;5.82;2.85;;;;;;;;;;4969498;28;20027;-66
2023/09/03 06:18:44;;;;;;;4.40;2.33;;;;;;;;;;4958701;28;20114;-65
2023/09/03 06:21:09;;;;;;;5.10;2.22;;;;;;;;;;4970323;28;20045;-66
2023/09/03 06:23:35;;;;;;;6.68;2.00;;;;;;;;;;4957486;28;20031;-66
2023/09/03 06:26:00;;;;;;;10.40;2.95;;;;;;;;;;4971307;28;20531;-66
2023/09/03 06:28:28;;;;;;;4.05;2.20;;;;;;;;;;4956210;28;20382;-66
2023/09/03 06:30:56;;;;;;;9.27;2.55;;;;;;;;;;4972381;28;20125;-66
2023/09/03 06:33:22;;;;;;;7.90;2.38;;;;;;;;;;4959598;28;20035;-66
2023/09/03 06:35:47;;;;;;;5.60;2.60;;;;;;;;;;4969368;28;20054;-66
2023/09/03 06:38:13;;;;;;;6.43;2.90;;;;;;;;;;4957327;28;20030;-66
2023/09/03 06:40:38;;;;;;;5.28;2.47;;;;;;;;;;4976727;28;20026;-66
2023/09/03 06:43:04;;;;;;;7.70;2.60;;;;;;;;;;4990713;28;20026;-66
2023/09/03 06:45:30;;;;;;;3.95;2.30;;;;;;;;;;4971891;28;20019;-66
2023/09/03 06:47:56;;;;;;;6.18;2.92;;;;;;;;;;4955201;28;20122;-66
2023/09/03 06:50:21;;;;;;;8.07;2.75;;;;;;;;;;4972960;28;20113;-66
2023/09/03 06:52:46;;;;;;;9.82;2.85;;;;;;;;;;4954228;28;20034;-66
2023/09/03 06:55:12;;;;;;;5.75;2.25;;;;;;;;;;4973436;28;20030;-66
2023/09/03 06:57:37;;;;;;;6.45;2.35;;;;;;;;;;4957453;28;20085;-66
2023/09/03 07:00:06;;;;;;;4.55;2.60;;;;;;;;;;4971299;28;20034;-66
2023/09/03 07:02:31;;;;;;;5.85;2.50;;;;;;;;;;4956060;28;20034;-66
2023/09/03 07:04:59;;;;;;;5.15;2.60;;;;;;;;;;4972175;28;20027;-66
2023/09/03 07:07:25;;;;;;;4.70;2.53;;;;;;;;;;4959067;28;20042;-66
2023/09/03 07:09:51;;;;;;;4.47;2.38;;;;;;;;;;4968604;28;20035;-66
2023/09/03 07:12:16;;;;;;;4.93;2.25;;;;;;;;;;4957973;28;20037;-66
2023/09/03 07:14:41;;;;;;;5.05;2.30;;;;;;;;;;4970118;28;20035;-66
2023/09/03 07:17:07;;;;;;;5.15;2.25;;;;;;;;;;4956708;28;20503;-66
2023/09/03 07:19:32;;;;;;;8.13;2.30;;;;;;;;;;4975386;28;20034;-66
2023/09/03 07:21:58;;;;;;;7.03;2.35;;;;;;;;;;4991689;28;20033;-66
2023/09/03 07:24:23;;;;;;;5.65;2.20;;;;;;;;;;4968708;28;20035;-66
2023/09/03 07:26:49;;;;;;;6.82;2.47;;;;;;;;;;4962011;28;20035;-66
2023/09/03 07:29:15;;;;;;;4.65;2.00;;;;;;;;;;4965943;28;20117;-66
2023/09/03 07:31:42;;;;;;;4.43;1.70;;;;;;;;;;4960805;28;20064;-66
2023/09/03 07:34:08;;;;;;;4.50;1.90;;;;;;;;;;4966869;28;20119;-66
2023/09/03 07:36:33;;;;;;;4.15;1.75;;;;;;;;;;4959689;28;20118;-66
2023/09/03 07:38:59;;;;;;;5.30;1.70;;;;;;;;;;4974542;28;20039;-66
2023/09/03 07:41:24;;;;;;;4.15;1.65;;;;;;;;;;4981140;28;20435;-66
2023/09/03 07:43:51;;;;;;;5.43;1.60;;;;;;;;;;4975376;28;20461;-66
2023/09/03 07:46:17;;;;;;;8.05;1.90;;;;;;;;;;4985416;28;20038;-66
2023/09/03 07:48:42;;;;;;;11.13;1.83;;;;;;;;;;4985603;28;20101;-66
2023/09/03 07:51:08;;;;;;;8.40;1.90;;;;;;;;;;4982959;28;20473;-66
2023/09/03 07:53:33;;;;;;;4.13;1.63;;;;;;;;;;4985236;28;20130;-66
2023/09/03 07:55:58;;;;;;;3.65;1.42;;;;;;;;;;4991474;28;20030;-66
2023/09/03 07:58:24;;;;;;;7.20;1.90;;;;;;;;;;4987400;28;20389;-66
2023/09/03 08:00:50;;;;;;;3.13;1.60;;;;;;;;;;4980465;28;20062;-66
2023/09/03 08:03:15;;;;;;;5.63;1.90;;;;;;;;;;4981710;28;20044;-65
2023/09/03 08:05:41;;;;;;;2.88;1.30;;;;;;;;;;4983427;28;20039;-66
2023/09/03 08:08:06;;;;;;;5.68;1.52;;;;;;;;;;4964888;28;20031;-66
2023/09/03 08:10:32;;;;;;;3.72;1.60;;;;;;;;;;4964153;28;20031;-66
2023/09/03 08:12:57;;;;;;;5.28;1.70;;;;;;;;;;4966644;28;20042;-66
2023/09/03 08:15:23;;;;;;;4.03;1.55;;;;;;;;;;4962227;28;20451;-66
2023/09/03 08:17:48;;;;;;;2.72;1.33;;;;;;;;;;4967209;28;20038;-66
2023/09/03 08:20:14;;;;;;;3.20;1.50;;;;;;;;;;4961711;28;20039;-66
2023/09/03 08:22:39;;;;;;;5.32;1.50;;;;;;;;;;4969270;28;20061;-66
2023/09/03 08:25:05;;;;;;;2.08;1.40;;;;;;;;;;4959743;28;20058;-66
2023/09/03 08:27:31;;;;;;;4.13;1.40;;;;;;;;;;4969301;28;20035;-66
2023/09/03 08:29:56;;;;;;;3.63;1.27;;;;;;;;;;4958444;28;20033;-66
2023/09/03 08:32:22;;;;;;;3.35;1.38;;;;;;;;;;4971588;28;20027;-66
2023/09/03 08:34:47;;;;;;;4.43;1.40;;;;;;;;;;4958222;28;20039;-66
2023/09/03 08:37:13;;;;;;;3.55;1.15;;;;;;;;;;4976827;28;20079;-66
2023/09/03 08:39:38;;;;;;;5.82;1.30;;;;;;;;;;4993684;28;20041;-66
2023/09/03 08:42:04;;;;;;;4.40;1.20;;;;;;;;;;4970614;28;20039;-66
2023/09/03 08:44:52;;;;;;;3.00;1.40;;;;;;;;;;4960308;28;20031;-66
2023/09/03 08:47:17;;;;;;;5.47;1.17;;;;;;;;;;4968752;28;20027;-66
2023/09/03 08:49:44;;;;;;;3.97;1.25;;;;;;;;;;4961984;28;20030;-66
2023/09/03 08:52:11;;;;;;;4.22;1.23;;;;;;;;;;4969985;28;20031;-66
2023/09/03 08:54:37;;;;;;;2.92;1.10;;;;;;;;;;4960888;28;20108;-66
2023/09/03 08:57:05;;;;;;;3.00;1.10;;;;;;;;;;4971029;28;20041;-66
2023/09/03 08:59:31;;;;;;;5.10;1.45;;;;;;;;;;4959641;28;20575;-66
2023/09/03 09:01:59;;;;;;;5.53;1.65;;;;;;;;;;4970779;28;20155;-66
2023/09/03 09:04:29;;;;;;;5.38;1.17;;;;;;;;;;4958817;28;20452;-66
2023/09/03 09:06:57;;;;;;;4.65;1.10;;;;;;;;;;4971994;28;20090;-66
2023/09/03 09:09:25;;;;;;;3.85;1.08;;;;;;;;;;4958542;28;20105;-66
2023/09/03 09:12:17;;;;;;;2.42;1.02;;;;;;;;;;4972562;28;20058;-66
2023/09/03 09:15:04;;;;;;;5.60;1.17;;;;;;;;;;4960807;28;20122;-66
2023/09/03 09:17:42;;;;;;;4.03;1.20;;;;;;;;;;4982406;28;20084;-66
2023/09/03 09:20:18;;;;;;;3.65;1.33;;;;;;;;;;4985289;28;20035;-65
2023/09/03 09:22:48;;;;;;;2.53;1.10;;;;;;;;;;4965327;28;20027;-66
2023/09/03 09:25:25;;;;;;;6.38;1.15;;;;;;;;;;4964410;28;20030;-66
2023/09/03 09:27:55;;;;;;;1.83;1.10;;;;;;;;;;4963140;28;20053;-66
2023/09/03 09:30:24;;;;;;;4.82;1.10;;;;;;;;;;4965554;28;20399;-66
2023/09/03 09:33:02;;;;;;;3.92;1.00;;;;;;;;;;4964659;28;20035;-66
2023/09/03 09:35:28;;;;;;;2.47;1.13;;;;;;;;;;4966161;28;20527;-66
2023/09/03 09:37:53;;;;;;;3.55;1.25;;;;;;;;;;4964121;28;20027;-66
2023/09/03 09:40:27;;;;;;;4.15;1.38;;;;;;;;;;4965101;28;20034;-66
2023/09/03 09:42:55;;;;;;;2.60;1.00;;;;;;;;;;4964229;28;20028;-66
2023/09/03 09:45:21;;;;;;;3.92;1.15;;;;;;;;;;4965256;28;20339;-66
2023/09/03 09:47:47;;;;;;;5.32;1.30;;;;;;;;;;4960861;28;20035;-66
2023/09/03 09:50:12;;;;;;;3.53;1.25;;;;;;;;;;4967556;28;20113;-66
2023/09/03 09:52:38;;;;;;;5.30;1.30;;;;;;;;;;4961853;28;20540;-66
2023/09/03 09:55:04;;;;;;;2.80;1.38;;;;;;;;;;4966705;28;20109;-66
2023/09/03 09:57:30;;;;;;;2.85;1.35;;;;;;;;;;4985266;28;20027;-66
2023/09/03 09:59:59;;;;;;;2.70;1.00;;;;;;;;;;4982932;28;20030;-65
2023/09/03 10:02:25;;;;;;;2.38;1.10;;;;;;;;;;4971428;28;20173;-65
2023/09/03 10:04:52;;;;;;;2.10;0.98;;;;;;;;;;4973767;28;20487;-66
2023/09/03 10:07:17;;;;;;;4.10;0.88;;;;;;;;;;4964845;28;20033;-66
2023/09/03 10:09:44;;;;;;;3.60;1.40;;;;;;;;;;4977702;28;20038;-66
2023/09/03 10:12:10;;;;;;;2.60;1.00;;;;;;;;;;4973554;28;20370;-66
2023/09/03 10:14:36;;;;;;;5.68;1.40;;;;;;;;;;4976227;28;20082;-65
2023/09/03 10:17:07;;;;;;;3.72;1.83;;;;;;;;;;4972007;28;20420;-66
2023/09/03 10:19:53;;;;;;;4.55;1.30;;;;;;;;;;4973202;28;20466;-65
2023/09/03 10:22:20;;;;;;;2.95;1.23;;;;;;;;;;4973862;28;20472;-66
2023/09/03 10:24:54;;;;;;;5.22;1.10;;;;;;;;;;4973686;28;20058;-66
2023/09/03 10:27:23;;;;;;;3.65;1.00;;;;;;;;;;4979373;28;20034;-65
2023/09/03 10:29:51;;;;;;;3.55;1.48;;;;;;;;;;4973759;28;20387;-66
2023/09/03 10:32:17;;;;;;;6.82;1.30;;;;;;;;;;4973493;28;20037;-66
2023/09/03 10:34:43;;;;;;;4.68;1.30;;;;;;;;;;4973385;28;20547;-66
2023/09/03 10:37:10;;;;;;;5.32;1.67;;;;;;;;;;4954435;28;20039;-66
2023/09/03 10:39:40;;;;;;;2.78;1.10;;;;;;;;;;4973172;28;20043;-66
2023/09/03 10:42:14;;;;;;;2.63;1.27;;;;;;;;;;4972791;28;20042;-66
2023/09/03 10:44:45;;;;;;;5.30;1.17;;;;;;;;;;4973683;28;20280;-66
2023/09/03 10:47:13;;;;;;;2.40;0.90;;;;;;;;;;4973077;28;20089;-66
2023/09/03 10:49:44;;;;;;;6.60;1.00;;;;;;;;;;4954424;28;20089;-66
2023/09/03 10:52:31;;;;;;;3.35;1.08;;;;;;;;;;4973152;28;20122;-66
2023/09/03 10:55:12;;;;;;;4.43;1.20;;;;;;;;;;4972443;28;20023;-65
2023/09/03 10:57:37;;;;;;;3.95;1.20;;;;;;;;;;4967005;28;20039;-66
2023/09/03 11:00:06;;;;;;;5.22;1.10;;;;;;;;;;4959001;28;20043;-65
2023/09/03 11:02:33;;;;;;;2.55;1.00;;;;;;;;;;4970376;28;20042;-66
2023/09/03 11:05:19;;;;;;;3.28;1.10;;;;;;;;;;4968586;28;20118;-66
2023/09/03 11:07:46;;;;;;;3.47;1.00;;;;;;;;;;4954095;28;20500;-66
2023/09/03 11:10:38;;;;;;;5.53;1.10;;;;;;;;;;4964727;28;20066;-66
2023/09/03 11:13:08;;;;;;;2.97;1.48;;;;;;;;;;4955273;28;20110;-66
2023/09/03 11:15:33;;;;;;;3.65;1.10;;;;;;;;;;4967220;28;20401;-66
2023/09/03 11:17:59;;;;;;;3.53;1.85;;;;;;;;;;4973179;28;20031;-66
2023/09/03 11:20:31;;;;;;;3.55;1.30;;;;;;;;;;4973347;28;20031;-66
2023/09/03 11:23:01;;;;;;;3.22;1.10;;;;;;;;;;4960790;28;20481;-66
2023/09/03 11:25:37;;;;;;;5.07;1.20;;;;;;;;;;4957061;29;20410;-67
2023/09/03 11:28:04;;;;;;;4.72;1.10;;;;;;;;;;4957239;29;20038;-66
2023/09/03 11:30:31;;;;;;;4.28;1.10;;;;;;;;;;4970071;28;20050;-66
2023/09/03 11:32:56;;;;;;;2.13;1.05;;;;;;;;;;4976498;28;20033;-67
2023/09/03 11:35:23;;;;;;;3.45;1.35;;;;;;;;;;4957785;28;20035;-66
2023/09/03 11:37:49;;;;;;;4.30;1.20;;;;;;;;;;4957558;29;20106;-66
2023/09/03 11:40:16;;;;;;;5.18;1.20;;;;;;;;;;4957714;29;20035;-66
2023/09/03 11:42:45;;;;;;;4.47;1.20;;;;;;;;;;4957568;28;20023;-66
2023/09/03 11:45:11;;;;;;;4.30;1.30;;;;;;;;;;4957128;28;20027;-66
2023/09/03 11:47:38;;;;;;;3.20;1.20;;;;;;;;;;4974088;28;20300;-66
2023/09/03 11:50:11;;;;;;;3.53;1.00;;;;;;;;;;4976297;28;20057;-66
2023/09/03 11:52:36;;;;;;;4.93;1.20;;;;;;;;;;4976492;28;20046;-67
2023/09/03 11:55:03;;;;;;;4.13;1.10;;;;;;;;;;4976154;28;20031;-66
2023/09/03 11:57:30;;;;;;;3.25;1.35;;;;;;;;;;4976487;28;20039;-67
2023/09/03 11:59:56;;;;;;;3.33;1.17;;;;;;;;;;4976060;28;20050;-67
2023/09/03 12:02:22;;;;;;;2.40;1.33;;;;;;;;;;4983077;28;20026;-67
2023/09/03 12:04:48;;;;;;;3.80;1.13;;;;;;;;;;4977426;28;20035;-67
2023/09/03 12:07:17;;;;;;;3.33;1.00;;;;;;;;;;4958894;28;20035;-66
2023/09/03 12:09:43;;;;;;;3.25;0.90;;;;;;;;;;4974130;28;20034;-66
2023/09/03 12:12:09;;;;;;;6.10;1.02;;;;;;;;;;4975909;28;20053;-67
2023/09/03 12:14:35;;;;;;;3.40;1.10;;;;;;;;;;4975659;28;20051;-66
2023/09/03 12:17:01;;;;;;;2.30;1.13;;;;;;;;;;4976051;28;20113;-66
2023/09/03 12:19:42;;;;;;;4.15;1.15;;;;;;;;;;4975929;28;20030;-66
2023/09/03 12:22:08;;;;;;;2.30;1.00;;;;;;;;;;4976008;28;20031;-66
2023/09/03 12:24:33;;;;;;;3.05;1.17;;;;;;;;;;4975733;28;20030;-67
2023/09/03 12:27:03;;;;;;;3.58;1.38;;;;;;;;;;4975784;28;20027;-66
2023/09/03 12:29:36;;;;;;;2.72;1.10;;;;;;;;;;4975569;28;20027;-66
2023/09/03 12:32:13;;;;;;;2.42;1.05;;;;;;;;;;4975806;28;20456;-67
2023/09/03 12:34:40;;;;;;;2.10;0.90;;;;;;;;;;4975695;28;20074;-66
2023/09/03 12:37:07;;;;;;;7.72;1.10;;;;;;;;;;4975635;28;20476;-66
2023/09/03 12:39:36;;;;;;;3.90;1.05;;;;;;;;;;4975760;28;20046;-66
2023/09/03 12:42:06;;;;;;;3.37;1.27;;;;;;;;;;4975264;28;20038;-66
2023/09/03 12:44:33;;;;;;;3.90;1.10;;;;;;;;;;4970869;28;20453;-69
2023/09/03 12:46:59;;;;;;;2.13;0.98;;;;;;;;;;4970761;28;20469;-65
2023/09/03 12:49:26;;;;;;;2.85;0.95;;;;;;;;;;4975301;28;20053;-66
2023/09/03 12:51:51;;;;;;;3.28;1.00;;;;;;;;;;4975486;28;20103;-65
2023/09/03 12:54:17;;;;;;;2.72;1.10;;;;;;;;;;4975642;28;20031;-66
2023/09/03 12:56:42;;;;;;;4.80;1.13;;;;;;;;;;4975343;28;20030;-65
2023/09/03 12:59:08;;;;;;;2.50;0.80;;;;;;;;;;4974871;28;20449;-65
2023/09/03 13:01:38;;;;;;;2.53;1.00;;;;;;;;;;4975759;28;20028;-66
2023/09/03 13:04:13;;;;;;;3.63;1.00;;;;;;;;;;4983827;28;20524;-65
2023/09/03 13:06:39;;;;;;;2.22;0.95;;;;;;;;;;4963406;28;20035;-66
2023/09/03 13:09:06;;;;;;;1.80;0.95;;;;;;;;;;4966554;28;20381;-65
2023/09/03 13:11:32;;;;;;;2.28;0.93;;;;;;;;;;4974772;28;20054;-65
2023/09/03 13:13:59;;;;;;;5.80;1.10;;;;;;;;;;4974705;28;20078;-65
2023/09/03 13:16:28;;;;;;;1.75;0.85;;;;;;;;;;4974984;28;20401;-65
2023/09/03 13:18:54;;;;;;;2.25;1.02;;;;;;;;;;4974617;28;20453;-65
2023/09/03 13:21:20;;;;;;;3.20;1.08;;;;;;;;;;4966329;28;20032;-66
2023/09/03 13:23:46;;;;;;;2.90;1.17;;;;;;;;;;4963546;28;20126;-65
2023/09/03 13:26:11;;;;;;;1.75;1.00;;;;;;;;;;4974575;28;20053;-65
2023/09/03 13:28:37;;;;;;;3.17;1.00;;;;;;;;;;4974388;28;20105;-64
2023/09/03 13:31:04;;;;;;;2.47;1.00;;;;;;;;;;4974651;28;20097;-65
2023/09/03 13:33:29;;;;;;;2.17;1.00;;;;;;;;;;4974676;28;20030;-65
2023/09/03 13:35:56;;;;;;;3.30;1.00;;;;;;;;;;4974798;28;20030;-65
2023/09/03 13:38:22;;;;;;;2.88;0.90;;;;;;;;;;4974654;28;20030;-65
2023/09/03 13:40:52;;;;;;;2.25;1.13;;;;;;;;;;4974355;28;20541;-65
2023/09/03 13:43:18;;;;;;;5.43;1.00;;;;;;;;;;4974478;28;20365;-64
2023/09/03 13:45:58;;;;;;;2.00;0.90;;;;;;;;;;4974568;28;20492;-65
2023/09/03 13:48:24;;;;;;;1.67;1.00;;;;;;;;;;4973646;28;20112;-65
2023/09/03 13:50:51;;;;;;;1.70;0.70;;;;;;;;;;4980350;28;20042;-65
2023/09/03 13:53:17;;;;;;;3.13;0.93;;;;;;;;;;4974349;28;20480;-65
2023/09/03 13:55:43;;;;;;;3.08;1.00;;;;;;;;;;4974116;28;20046;-66
2023/09/03 13:58:09;;;;;;;3.50;1.10;;;;;;;;;;4974150;28;20440;-66
2023/09/03 14:00:37;;;;;;;3.60;1.08;;;;;;;;;;4973784;28;20047;-65
2023/09/03 14:03:03;;;;;;;2.20;1.00;;;;;;;;;;4976976;28;20126;-66
2023/09/03 14:05:28;;;;;;;4.60;1.33;;;;;;;;;;4973875;28;20062;-66
2023/09/03 14:07:54;;;;;;;4.85;1.00;;;;;;;;;;4973841;28;20403;-67
2023/09/03 14:10:19;;;;;;;1.80;0.90;;;;;;;;;;4973837;28;20031;-66
2023/09/03 14:12:45;;;;;;;3.40;1.00;;;;;;;;;;4973769;28;20504;-67
2023/09/03 14:15:12;;;;;;;3.33;1.27;;;;;;;;;;4973778;28;20492;-66
2023/09/03 14:17:39;;;;;;;3.38;1.00;;;;;;;;;;4973642;28;20090;-66
2023/09/03 14:20:05;;;;;;;2.38;1.00;;;;;;;;;;4973855;28;20069;-66
2023/09/03 14:22:31;;;;;;;2.65;0.93;;;;;;;;;;4973706;28;20492;-66
2023/09/03 14:24:56;;;;;;;2.45;1.25;;;;;;;;;;4973722;28;20034;-66
2023/09/03 14:27:22;;;;;;;3.38;1.10;;;;;;;;;;4972690;28;20043;-66
2023/09/03 14:29:47;;;;;;;2.00;1.00;;;;;;;;;;4973792;28;20046;-66
2023/09/03 14:32:12;;;;;;;1.15;0.80;;;;;;;;;;4960052;28;20397;-66
2023/09/03 14:34:41;;;;;;;2.40;1.05;;;;;;;;;;4954359;29;20035;-66
2023/09/03 14:37:08;;;;;;;2.90;0.98;;;;;;;;;;4954313;29;20508;-66
2023/09/03 14:39:35;;;;;;;1.92;0.90;;;;;;;;;;4966870;28;20049;-66